EDT,Max TemperatureF,Mean TemperatureF,Min TemperatureF,Max Dew PointF,MeanDew PointF,Min DewpointF,Max Humidity, Mean Humidity, Min Humidity, Max Sea Level PressureIn, Mean Sea Level PressureIn, Min Sea Level PressureIn, Max VisibilityMiles, Mean VisibilityMiles, Min VisibilityMiles, Max Wind SpeedMPH, Mean Wind SpeedMPH, Max Gust SpeedMPH,PrecipitationIn, CloudCover, Events, WindDirDegrees
2011-10-1,64,57,50,54,47,41,94,76,42,29.83,29.78,29.72,10,10,2,8,1,,0.00,2,Rain,315
2011-10-2,57,50,42,46,40,34,93,72,41,30.01,29.93,29.88,10,10,10,9,1,,0.00,4,Rain,305
2011-10-3,62,53,44,46,42,37,93,72,45,30.12,30.06,30.01,10,10,10,7,1,,0.00,5,,301
2011-10-4,69,56,44,52,46,43,93,74,43,30.20,30.16,30.11,10,10,4,8,1,,0.00,1,,331
2011-10-5,71,60,50,54,48,45,94,68,38,30.25,30.20,30.16,10,9,5,8,1,,0.00,0,,342
2011-10-6,71,60,50,57,48,41,88,68,35,30.35,30.30,30.24,10,10,10,13,2,16,0.00,0,,22
2011-10-7,71,55,39,52,44,36,93,69,35,30.45,30.41,30.37,10,10,2,6,1,,0.00,0,,38
2011-10-8,71,58,44,57,49,43,93,74,46,30.50,30.46,30.43,10,10,7,9,2,9,0.00,1,,47
2011-10-9,73,62,50,59,50,46,94,72,43,30.46,30.41,30.33,10,10,7,7,2,,0.00,0,,28
2011-10-10,73,62,50,59,53,46,94,74,50,30.32,30.23,30.13,10,10,7,7,2,,0.00,0,,32
2011-10-11,69,66,62,64,61,59,88,85,73,30.11,30.06,29.98,10,9,4,10,3,17,0.00,6,Rain,21
2011-10-12,71,68,64,68,64,61,94,89,83,29.96,29.88,29.79,10,8,3,9,4,,0.00,7,Rain,90
2011-10-13,78,74,69,68,67,64,88,83,61,29.78,29.71,29.61,10,8,1,13,4,18,0.00,4,Rain,165
2011-10-14,73,66,57,63,55,41,94,71,33,29.72,29.61,29.56,10,9,2,7,3,,0.00,2,Rain,203
2011-10-15,71,58,44,50,41,27,93,61,19,29.92,29.88,29.84,10,10,10,8,1,,0.00,0,,258
2011-10-16,71,55,39,48,41,36,93,60,27,30.13,30.05,29.96,10,10,10,8,1,,0.00,0,,193
2011-10-17,84,68,53,57,51,46,88,57,33,29.93,29.88,29.81,10,10,7,10,4,,0.00,0,,182
2011-10-18,82,68,55,63,57,52,88,69,39,29.89,29.84,29.78,10,10,10,12,4,17,0.00,0,,174
2011-10-19,73,68,62,72,64,59,94,90,88,29.70,29.47,29.30,10,7,1,10,3,,0.00,8,Rain,51
2011-10-20,62,54,46,52,43,39,87,68,45,29.86,29.68,29.45,10,10,10,12,6,17,0.00,2,,184
2011-10-21,64,53,42,50,43,39,93,70,45,30.06,30.02,29.93,10,10,5,6,0,,0.00,0,,309
2011-10-22,64,54,44,50,45,41,93,76,49,30.16,30.11,30.08,10,10,7,7,1,,0.00,1,,17
2011-10-23,64,50,37,48,41,34,93,74,42,30.17,30.13,30.09,10,9,7,8,1,,0.00,0,,31
2011-10-24,69,55,41,52,45,39,94,77,43,30.14,30.08,30.01,10,9,4,7,1,,0.00,0,,12
2011-10-25,69,56,44,48,44,37,93,69,33,30.27,30.17,30.07,10,9,2,9,1,,0.00,0,,357
2011-10-26,73,57,41,55,48,39,93,73,44,30.16,30.04,29.90,10,10,5,8,1,16,0.00,0,,183
2011-10-27,77,65,53,55,51,48,88,65,38,29.89,29.80,29.71,10,10,7,9,3,18,0.00,0,,181
2011-10-28,59,52,44,46,40,34,93,70,54,30.19,30.11,29.93,10,9,4,21,12,26,0.00,8,Rain,9
2011-10-29,51,46,42,50,43,37,94,89,76,30.03,29.90,29.83,10,8,3,9,5,21,0.00,8,Rain,337
2011-10-30,53,42,32,37,30,23,100,74,30,30.38,30.27,30.11,10,10,1,9,1,,0.00,0,,6
2011-10-31,59,44,30,45,34,28,93,77,51,30.38,30.32,30.18,10,10,2,8,1,,0.00,2,,97